Time;durP1;ratioP1;P1;durP2;ratioP2;P2;SDS_P1;SDS_P2;PMS_P1;PMS_P2;Temp;Humidity;BMP_temperature;BMP_pressure;BME280_temperature;BME280_humidity;BME280_pressure;Samples;Min_cycle;Max_cycle;Signal;HPM_P1;HPM_P2
2021/05/30 00:02:14;;;;;;;6.83;5.45;;;;;;;12.85;100.00;98991.92;1806234;77;20887;-68
2021/05/30 00:04:41;;;;;;;8.70;5.55;;;;;;;12.81;100.00;98992.76;1804733;78;21006;-68
2021/05/30 00:07:08;;;;;;;5.25;4.62;;;;;;;12.77;100.00;98989.05;1736483;81;21047;-68
2021/05/30 00:09:41;;;;;;;4.40;3.92;;;;;;;12.72;100.00;98985.05;1803545;77;20865;-68
2021/05/30 00:12:09;;;;;;;5.50;3.83;;;;;;;12.70;100.00;98988.01;1817010;78;20857;-67
2021/05/30 00:14:37;;;;;;;4.60;3.42;;;;;;;12.69;100.00;98978.86;1812019;78;20930;-69
2021/05/30 00:17:05;;;;;;;6.12;3.62;;;;;;;12.63;100.00;98980.24;1802635;78;20960;-68
2021/05/30 00:19:33;;;;;;;5.10;3.92;;;;;;;12.61;100.00;98995.07;1748056;81;21574;-67
2021/05/30 00:22:01;;;;;;;5.65;3.75;;;;;;;12.58;100.00;98991.05;1769774;79;20985;-67
2021/05/30 00:24:29;;;;;;;6.95;3.87;;;;;;;12.56;100.00;98990.52;1791722;78;20932;-67
2021/05/30 00:26:55;;;;;;;7.45;3.35;;;;;;;12.54;100.00;98989.20;1808380;78;20971;-67
2021/05/30 00:29:22;;;;;;;7.72;3.72;;;;;;;12.52;100.00;98988.16;1813138;78;20903;-67
2021/05/30 00:31:48;;;;;;;6.70;4.17;;;;;;;12.49;100.00;98995.42;1818921;78;21614;-67
2021/05/30 00:34:15;;;;;;;4.83;4.40;;;;;;;12.51;100.00;98995.15;1741119;81;20896;-67
2021/05/30 00:36:42;;;;;;;4.70;3.62;;;;;;;12.51;100.00;98993.25;1740263;80;20867;-67
2021/05/30 00:39:08;;;;;;;4.75;3.58;;;;;;;12.53;100.00;98988.95;1755732;80;20939;-67
2021/05/30 00:41:34;;;;;;;5.17;3.50;;;;;;;12.53;100.00;98988.40;1745999;81;20942;-67
2021/05/30 00:44:01;;;;;;;7.03;3.60;;;;;;;12.54;100.00;99002.66;1744567;81;21614;-67
2021/05/30 00:46:29;;;;;;;6.58;3.87;;;;;;;12.53;100.00;98995.68;1815735;77;20892;-67
2021/05/30 00:48:56;;;;;;;;;;;;;;;12.52;100.00;99002.95;1826652;78;21002;-67
2021/05/30 00:51:22;;;;;;;4.35;3.98;;;;;;;12.51;100.00;98997.30;1805149;78;20140;-67
2021/05/30 00:53:50;;;;;;;4.80;3.65;;;;;;;12.49;100.00;98996.77;1809557;78;20999;-67
2021/05/30 00:56:16;;;;;;;6.78;4.25;;;;;;;12.48;100.00;98997.86;1805834;78;21098;-68
2021/05/30 00:58:43;;;;;;;6.50;4.72;;;;;;;12.48;100.00;98991.13;1819779;78;20963;-67
2021/05/30 01:01:10;;;;;;;6.90;3.98;;;;;;;12.49;100.00;98986.55;1804409;78;21537;-66
2021/05/30 01:03:37;;;;;;;6.40;4.50;;;;;;;12.51;100.00;98987.07;1817054;78;20943;-67
2021/05/30 01:06:04;;;;;;;6.35;4.60;;;;;;;12.55;100.00;98985.44;1820323;78;20956;-67
2021/05/30 01:08:32;;;;;;;5.17;4.67;;;;;;;12.56;100.00;98981.10;1812681;78;21605;-66
2021/05/30 01:11:00;;;;;;;5.65;5.00;;;;;;;12.58;100.00;98979.48;1800528;78;20883;-67
2021/05/30 01:13:28;;;;;;;6.72;5.03;;;;;;;12.59;100.00;98981.08;1804602;78;21647;-67
2021/05/30 01:15:55;;;;;;;7.50;5.72;;;;;;;12.59;100.00;98978.39;1800594;78;21050;-68
2021/05/30 01:18:24;;;;;;;8.50;5.65;;;;;;;12.59;100.00;98983.25;1803597;78;21006;-65
2021/05/30 01:20:55;;;;;;;11.08;6.37;;;;;;;12.59;100.00;98988.64;1804141;78;21026;-66
2021/05/30 01:23:22;;;;;;;11.03;7.12;;;;;;;12.58;100.00;98987.02;1813139;78;20885;-67
2021/05/30 01:25:49;;;;;;;11.00;7.15;;;;;;;12.57;100.00;98981.93;1814653;78;20867;-67
2021/05/30 01:28:15;;;;;;;6.83;6.22;;;;;;;12.55;100.00;98970.63;1745767;81;20918;-67
2021/05/30 01:30:42;;;;;;;10.80;6.80;;;;;;;12.53;100.00;98968.77;1815594;78;20976;-67
2021/05/30 01:33:09;;;;;;;21.82;7.12;;;;;;;12.50;100.00;98971.47;1807206;78;21022;-67
2021/05/30 01:35:36;;;;;;;7.53;5.85;;;;;;;12.46;100.00;98979.03;1813901;78;21454;-67
2021/05/30 01:38:03;;;;;;;7.58;6.20;;;;;;;12.43;100.00;98978.51;1813767;77;21027;-68
2021/05/30 01:40:30;;;;;;;11.65;6.62;;;;;;;12.42;100.00;98983.64;1813791;78;21102;-68
2021/05/30 01:42:57;;;;;;;9.05;6.70;;;;;;;12.39;100.00;98983.38;1728908;81;21058;-71
2021/05/30 01:45:25;;;;;;;7.12;6.33;;;;;;;12.40;100.00;98989.05;1808209;77;21700;-68
2021/05/30 01:47:51;;;;;;;7.40;6.22;;;;;;;12.41;100.00;98992.78;1809908;78;26881;-69
2021/05/30 01:50:20;;;;;;;7.67;6.05;;;;;;;12.40;100.00;98990.39;1805358;78;20968;-67
2021/05/30 01:52:48;;;;;;;7.47;5.92;;;;;;;12.39;100.00;98995.48;1801597;78;20899;-68
2021/05/30 01:55:23;;;;;;;9.75;5.80;;;;;;;12.39;100.00;98994.94;1742057;81;20920;-67
2021/05/30 01:57:49;;;;;;;7.17;5.65;;;;;;;12.39;100.00;98998.19;1817255;77;21608;-70
2021/05/30 02:00:15;;;;;;;;;;;;;;;12.38;100.00;98996.04;1814924;78;20964;-68
2021/05/30 02:02:48;;;;;;;6.70;6.10;;;;;;;12.36;100.00;98998.20;1800865;78;20231;-68
2021/05/30 02:05:14;;;;;;;8.20;6.67;;;;;;;12.34;100.00;99003.05;1807976;78;20961;-68
2021/05/30 02:07:42;;;;;;;5.97;5.40;;;;;;;12.33;100.00;99002.80;1825083;78;21016;-69
2021/05/30 02:10:11;;;;;;;6.15;5.55;;;;;;;12.31;100.00;99005.51;1816093;77;21057;-69
2021/05/30 02:12:38;;;;;;;;;;;;;;;12.32;100.00;99006.59;1802303;78;21505;-67
2021/05/30 02:15:06;;;;;;;5.80;5.20;;;;;;;12.33;100.00;99016.26;1811833;77;20159;-68
2021/05/30 02:17:34;;;;;;;6.87;5.72;;;;;;;12.31;100.00;99016.27;1800932;78;20955;-68
2021/05/30 02:20:00;;;;;;;5.83;5.15;;;;;;;12.28;100.00;99024.36;1812693;78;20958;-70
2021/05/30 02:22:27;;;;;;;6.85;5.92;;;;;;;12.26;100.00;99023.03;1802910;77;21697;-68
2021/05/30 02:24:53;;;;;;;6.45;5.87;;;;;;;12.25;100.00;99024.09;1744533;80;21038;-68
2021/05/30 02:27:20;;;;;;;5.67;5.17;;;;;;;12.25;100.00;99029.48;1804605;78;20923;-68
2021/05/30 02:29:46;;;;;;;6.03;5.42;;;;;;;12.23;100.00;99021.70;1806890;77;20939;-67
2021/05/30 02:32:14;;;;;;;7.42;5.62;;;;;;;12.25;100.00;99028.96;1803306;78;21487;-68
2021/05/30 02:34:42;;;;;;;7.83;5.58;;;;;;;12.25;100.00;99028.13;1797411;78;21041;-68
2021/05/30 02:37:11;;;;;;;5.78;5.17;;;;;;;12.26;100.00;99032.45;1817581;78;20869;-68
2021/05/30 02:39:38;;;;;;;5.87;5.28;;;;;;;12.26;100.00;99030.55;1814147;78;21531;-69
2021/05/30 02:42:06;;;;;;;7.85;4.47;;;;;;;12.27;100.00;99035.39;1740223;81;20895;-67
2021/05/30 02:44:33;;;;;;;8.13;5.70;;;;;;;12.29;100.00;99041.30;1764908;80;21579;-68
2021/05/30 02:47:00;;;;;;;7.25;6.55;;;;;;;12.29;100.00;99039.95;1761249;80;21581;-68
2021/05/30 02:52:17;;;;;;;17.75;5.83;;;;;;;12.33;100.00;99039.67;1851165;77;22656;-69
2021/05/30 02:54:44;;;;;;;6.30;4.53;;;;;;;12.29;100.00;99039.95;1749248;82;20902;-67
2021/05/30 02:57:11;;;;;;;8.40;5.28;;;;;;;12.29;100.00;99041.30;1819007;78;21099;-67
2021/05/30 02:59:38;;;;;;;5.45;4.47;;;;;;;12.27;100.00;99043.46;1748986;81;21039;-68
2021/05/30 03:02:05;;;;;;;5.08;4.58;;;;;;;12.25;100.00;99038.38;1818741;78;20871;-68
2021/05/30 03:04:32;;;;;;;8.50;4.83;;;;;;;12.23;100.00;99039.19;1749141;81;21013;-66
2021/05/30 03:07:00;;;;;;;7.05;5.70;;;;;;;12.25;100.00;99044.27;1818827;78;20977;-67
2021/05/30 03:09:27;;;;;;;6.80;5.90;;;;;;;12.23;100.00;99049.95;1818803;78;22238;-67
2021/05/30 03:11:56;;;;;;;;;;;;;;;12.20;100.00;99029.78;1751629;82;20992;-68
2021/05/30 03:14:23;;;;;;;8.83;6.10;;;;;;;12.17;100.00;99033.01;1749453;82;20161;-67
2021/05/30 03:16:49;;;;;;;7.20;5.65;;;;;;;12.12;100.00;99034.38;1818962;78;20997;-68
2021/05/30 03:19:20;;;;;;;6.53;5.15;;;;;;;12.10;100.00;99031.70;1749319;81;20976;-68
2021/05/30 03:21:47;;;;;;;6.80;4.53;;;;;;;12.09;100.00;99039.52;1818947;78;21106;-67
2021/05/30 03:24:14;;;;;;;6.42;5.10;;;;;;;12.11;100.00;99037.37;1818914;78;21453;-68
2021/05/30 03:26:42;;;;;;;7.12;5.42;;;;;;;12.10;100.00;99031.70;1749122;81;20989;-67
2021/05/30 03:29:09;;;;;;;5.10;4.55;;;;;;;12.10;100.00;99033.87;1819057;78;21421;-67
2021/05/30 03:31:36;;;;;;;5.20;4.70;;;;;;;12.08;100.00;99028.48;1749127;81;21140;-68
2021/05/30 03:34:03;;;;;;;6.03;5.28;;;;;;;12.06;100.00;99023.39;1818897;78;21104;-62
2021/05/30 03:36:31;;;;;;;7.97;5.10;;;;;;;12.05;100.00;99026.34;1818714;78;20970;-68
2021/05/30 03:39:08;;;;;;;6.12;5.05;;;;;;;12.04;100.00;99021.52;1818799;78;21606;-67
2021/05/30 03:41:38;;;;;;;7.75;6.00;;;;;;;12.02;100.00;99026.36;1748786;81;21630;-70
2021/05/30 03:44:07;;;;;;;6.62;5.83;;;;;;;12.02;100.00;99025.02;1818989;78;21563;-71
2021/05/30 03:46:36;;;;;;;4.92;4.35;;;;;;;12.02;100.00;99030.39;1818866;78;21824;-65
2021/05/30 03:49:08;;;;;;;5.50;5.00;;;;;;;12.01;100.00;99027.45;1748774;82;20977;-70
2021/05/30 03:51:34;;;;;;;6.20;4.72;;;;;;;12.03;100.00;99031.19;1821937;78;21619;-71
2021/05/30 03:54:01;;;;;;;5.25;4.75;;;;;;;12.01;100.00;99020.19;1824505;78;20982;-66
2021/05/30 03:56:28;;;;;;;5.80;5.30;;;;;;;12.02;100.00;99025.02;1824502;78;20966;-69
2021/05/30 03:58:57;;;;;;;6.90;6.17;;;;;;;12.04;100.00;99029.59;1824713;78;21115;-68
2021/05/30 04:01:23;;;;;;;14.38;6.45;;;;;;;12.07;100.00;99026.88;1824431;78;20902;-71
2021/05/30 04:03:50;;;;;;;7.12;5.70;;;;;;;12.10;100.00;99026.33;1823905;78;20939;-71
2021/05/30 04:06:18;;;;;;;6.72;5.60;;;;;;;12.14;100.00;99034.91;1823813;78;20985;-68
2021/05/30 04:08:47;;;;;;;7.15;4.60;;;;;;;12.18;100.00;99035.18;1824051;78;21001;-69
2021/05/30 04:11:14;;;;;;;;;;;;;;;12.20;100.00;99033.82;1756706;81;21039;-69
2021/05/30 04:13:41;;;;;;;7.53;5.62;;;;;;;12.20;100.00;99032.48;1754012;81;20189;-66
2021/05/30 04:16:09;;;;;;;5.67;5.20;;;;;;;12.23;100.00;99028.42;1752667;81;21054;-72
2021/05/30 04:18:36;;;;;;;5.90;5.40;;;;;;;12.22;100.00;99032.18;1753974;81;20948;-69
2021/05/30 04:21:05;;;;;;;9.78;5.60;;;;;;;12.24;100.00;99040.78;1754096;81;21599;-64
2021/05/30 04:23:32;;;;;;;7.58;6.28;;;;;;;12.26;100.00;99043.21;1725033;81;21088;-68
2021/05/30 04:25:59;;;;;;;8.10;5.90;;;;;;;12.25;100.00;99051.00;1754112;81;20987;-73
2021/05/30 04:28:26;;;;;;;13.22;6.87;;;;;;;12.23;100.00;99045.37;1754324;81;20891;-69
2021/05/30 04:30:53;;;;;;;9.50;7.95;;;;;;;12.24;100.00;99044.82;1752318;81;20990;-71
2021/05/30 04:33:27;;;;;;;9.58;7.95;;;;;;;12.26;100.00;99037.83;1754051;81;20935;-70
2021/05/30 04:35:54;;;;;;;15.80;9.63;;;;;;;12.28;100.00;99035.67;1754138;81;21732;-71
2021/05/30 04:38:22;;;;;;;15.95;9.30;;;;;;;12.28;100.00;99039.70;1752174;81;20978;-72
2021/05/30 04:40:50;;;;;;;11.90;8.18;;;;;;;12.31;100.00;99038.59;1754002;81;21055;-73
2021/05/30 04:43:17;;;;;;;9.33;7.70;;;;;;;12.34;100.00;99039.92;1754300;81;20934;-70
2021/05/30 04:45:46;;;;;;;;;;;;;;;12.34;100.00;99039.92;1755101;81;20894;-71
2021/05/30 04:48:14;;;;;;;8.18;6.03;;;;;;;12.35;100.00;99048.28;1748217;82;21509;-71
2021/05/30 04:50:40;;;;;;;8.53;6.22;;;;;;;12.35;100.00;99037.52;1763385;81;21033;-72
2021/05/30 04:53:07;;;;;;;7.58;6.80;;;;;;;12.36;100.00;99039.11;1748275;82;21571;-73
2021/05/30 04:55:34;;;;;;;12.15;7.25;;;;;;;12.40;100.00;99035.59;1818104;78;21001;-71
2021/05/30 04:58:02;;;;;;;8.98;7.10;;;;;;;12.44;100.00;99033.96;1786257;78;21614;-71
2021/05/30 05:00:30;;;;;;;9.60;7.05;;;;;;;12.50;100.00;99037.97;1748750;81;21509;-72
2021/05/30 05:02:58;;;;;;;19.60;11.75;;;;;;;12.53;100.00;99032.02;1818160;78;20986;-71
2021/05/30 05:05:25;;;;;;;13.37;7.87;;;;;;;12.62;100.00;99036.53;1748698;82;21042;-72
2021/05/30 05:07:52;;;;;;;8.98;7.97;;;;;;;12.80;100.00;99042.33;1817982;78;21812;-70
2021/05/30 05:10:21;;;;;;;28.83;17.77;;;;;;;13.01;100.00;99045.13;1818046;78;20907;-71
2021/05/30 05:12:48;;;;;;;80.38;55.48;;;;;;;13.22;100.00;99040.91;1818239;78;21092;-69
2021/05/30 05:15:14;;;;;;;58.35;43.70;;;;;;;13.43;100.00;99038.31;1818187;78;21018;-68
2021/05/30 05:17:42;;;;;;;12.50;9.98;;;;;;;13.62;100.00;99038.92;1748439;81;20990;-70
2021/05/30 05:20:12;;;;;;;8.00;6.30;;;;;;;13.78;100.00;99034.98;1818207;78;21018;-69
2021/05/30 05:22:39;;;;;;;8.38;5.25;;;;;;;13.82;100.00;99031.17;1748413;81;20974;-69
2021/05/30 05:25:09;;;;;;;4.80;3.85;;;;;;;13.85;100.00;99024.64;1818483;78;21895;-71
2021/05/30 05:27:36;;;;;;;7.40;4.03;;;;;;;14.07;100.00;99033.55;1818146;78;20893;-68
2021/05/30 05:30:05;;;;;;;6.08;4.83;;;;;;;14.13;100.00;99039.16;1748392;81;20945;-66
2021/05/30 05:32:33;;;;;;;5.30;4.40;;;;;;;14.50;100.00;99036.75;1818119;78;20942;-68
2021/05/30 05:35:00;;;;;;;5.80;4.47;;;;;;;14.72;100.00;99030.78;1746244;81;21143;-69
2021/05/30 05:37:27;;;;;;;5.60;4.22;;;;;;;14.81;100.00;99033.63;1816685;78;21084;-67
2021/05/30 05:39:55;;;;;;;;;;;;;;;15.00;100.00;99029.00;1750032;81;21048;-66
2021/05/30 05:42:22;;;;;;;4.70;4.00;;;;;;;14.95;100.00;99024.48;1747188;82;20208;-67
2021/05/30 05:44:49;;;;;;;5.40;4.22;;;;;;;14.55;100.00;99030.78;1816976;78;21175;-65
2021/05/30 05:47:15;;;;;;;21.33;14.10;;;;;;;14.52;100.00;99035.36;1747496;81;21013;-65
2021/05/30 05:49:44;;;;;;;10.60;5.55;;;;;;;14.63;100.00;99041.47;1817340;78;21415;-67
2021/05/30 05:52:11;;;;;;;7.08;4.50;;;;;;;14.56;100.00;99045.88;1820070;78;21024;-68
2021/05/30 05:54:38;;;;;;;5.12;3.50;;;;;;;14.57;100.00;99054.22;1823347;78;20994;-65
2021/05/30 05:57:09;;;;;;;4.05;3.62;;;;;;;14.68;100.00;99048.69;1822611;78;20993;-67
2021/05/30 05:59:36;;;;;;;3.98;3.58;;;;;;;14.84;100.00;99055.45;1823395;78;21045;-67
2021/05/30 06:02:04;;;;;;;3.55;2.80;;;;;;;14.94;100.00;99045.03;1753170;81;21060;-68
2021/05/30 06:04:31;;;;;;;4.35;3.45;;;;;;;14.99;100.00;99047.65;1783921;80;21606;-67
2021/05/30 06:06:59;;;;;;;4.22;3.80;;;;;;;14.96;100.00;99049.04;1784125;80;20970;-67
2021/05/30 06:09:27;;;;;;;8.18;3.90;;;;;;;15.03;100.00;99054.08;1755693;80;21018;-65
2021/05/30 06:11:55;;;;;;;3.75;3.42;;;;;;;15.09;100.00;99053.44;1784041;80;21033;-69
2021/05/30 06:14:22;;;;;;;6.60;3.50;;;;;;;15.20;100.00;99061.09;1783929;80;21091;-68
2021/05/30 06:16:49;;;;;;;4.25;3.85;;;;;;;15.28;100.00;99064.21;1784038;80;21045;-65
2021/05/30 06:19:18;;;;;;;5.15;3.95;;;;;;;15.20;100.00;99067.05;1784047;80;20954;-68
2021/05/30 06:21:44;;;;;;;9.63;4.15;;;;;;;15.11;100.00;99066.91;1784279;80;20887;-68
2021/05/30 06:24:11;;;;;;;4.62;4.22;;;;;;;15.15;100.00;99067.14;1784212;80;20954;-69
2021/05/30 06:26:38;;;;;;;5.45;3.80;;;;;;;15.01;100.00;99069.23;1776774;80;21826;-69
2021/05/30 06:29:05;;;;;;;6.72;3.80;;;;;;;15.04;100.00;99077.84;1752097;81;21568;-67
2021/05/30 06:31:32;;;;;;;6.97;3.72;;;;;;;14.95;100.00;99078.52;1782875;80;20958;-65
2021/05/30 06:33:59;;;;;;;5.17;3.98;;;;;;;14.77;100.00;99086.91;1783446;80;21002;-67
2021/05/30 06:36:26;;;;;;;4.87;3.98;;;;;;;14.54;100.00;99089.12;1754303;80;21097;-67
2021/05/30 06:38:57;;;;;;;5.63;4.30;;;;;;;14.40;100.00;99086.30;1783410;80;21053;-68
2021/05/30 06:41:29;;;;;;;5.25;3.87;;;;;;;14.30;100.00;99089.92;1781167;80;20958;-65
2021/05/30 06:43:56;;;;;;;9.68;4.62;;;;;;;14.18;100.00;99086.84;1756099;80;21033;-68
2021/05/30 06:46:24;;;;;;;6.30;4.78;;;;;;;14.09;100.00;99091.29;1784217;80;20958;-67
2021/05/30 06:48:52;;;;;;;3.87;3.58;;;;;;;14.17;100.00;99096.59;1784360;80;26469;-65
2021/05/30 06:51:22;;;;;;;5.67;4.25;;;;;;;14.22;100.00;99090.58;1783723;80;21103;-66
2021/05/30 06:53:50;;;;;;;6.28;4.80;;;;;;;14.21;100.00;99095.73;1817013;79;20891;-67
2021/05/30 06:56:17;;;;;;;6.53;4.60;;;;;;;14.15;100.00;99092.27;1785604;79;21002;-67
2021/05/30 06:58:44;;;;;;;6.55;4.75;;;;;;;14.22;100.00;99089.78;1816766;79;21033;-67
2021/05/30 07:01:14;;;;;;;5.95;5.30;;;;;;;14.31;100.00;99082.66;1817112;78;21030;-66
2021/05/30 07:03:43;;;;;;;6.35;5.33;;;;;;;14.47;100.00;99085.39;1816856;79;21078;-69
2021/05/30 07:06:12;;;;;;;8.98;6.00;;;;;;;14.54;100.00;99087.77;1817387;79;20962;-69
2021/05/30 07:08:39;;;;;;;7.33;5.83;;;;;;;14.50;100.00;99085.35;1816990;78;21575;-64
2021/05/30 07:11:06;;;;;;;6.53;5.92;;;;;;;14.45;100.00;99094.33;1817157;79;21046;-66
2021/05/30 07:13:33;;;;;;;8.28;6.08;;;;;;;14.40;100.00;99087.64;1817412;78;21053;-68
2021/05/30 07:16:00;;;;;;;5.92;5.33;;;;;;;14.36;100.00;99087.98;1785592;79;21049;-67
2021/05/30 07:18:27;;;;;;;9.57;6.97;;;;;;;14.32;100.00;99085.59;1817201;79;20939;-67
2021/05/30 07:20:56;;;;;;;;;;;;;;;14.40;100.00;99091.69;1819811;78;20887;-68
2021/05/30 07:23:22;;;;;;;7.15;6.25;;;;;;;14.61;100.00;99089.56;1777845;80;20259;-68
2021/05/30 07:25:54;;;;;;;5.67;5.17;;;;;;;14.68;100.00;99093.26;1817370;78;21105;-68
2021/05/30 07:28:21;;;;;;;8.30;6.50;;;;;;;14.60;100.00;99089.32;1817175;79;21103;-68
2021/05/30 07:30:50;;;;;;;6.22;5.62;;;;;;;14.63;100.00;99094.13;1817277;79;21037;-66
2021/05/30 07:33:16;;;;;;;6.95;5.90;;;;;;;14.68;100.00;99094.61;1817603;79;20879;-67
2021/05/30 07:35:44;;;;;;;5.65;5.15;;;;;;;14.66;100.00;99094.89;1817438;78;20986;-68
2021/05/30 07:38:11;;;;;;;6.10;5.50;;;;;;;14.70;100.00;99102.67;1786033;78;21018;-67
2021/05/30 07:40:41;;;;;;;7.47;6.33;;;;;;;14.69;100.00;99105.11;1817343;78;21049;-67
2021/05/30 07:43:09;;;;;;;5.92;5.42;;;;;;;14.66;100.00;99104.90;1817506;78;20974;-67
2021/05/30 07:45:37;;;;;;;5.15;4.75;;;;;;;14.65;100.00;99109.50;1816906;78;20959;-68
2021/05/30 07:48:07;;;;;;;5.03;4.62;;;;;;;14.53;100.00;99097.77;1817501;78;20978;-66
2021/05/30 07:50:35;;;;;;;5.40;4.90;;;;;;;14.37;100.00;99109.27;1816676;78;21588;-69
2021/05/30 07:53:03;;;;;;;6.62;4.62;;;;;;;14.23;100.00;99115.67;1819681;78;21509;-71
2021/05/30 07:55:31;;;;;;;4.85;4.20;;;;;;;14.24;100.00;99103.80;1822579;78;21627;-69
2021/05/30 07:57:59;;;;;;;5.93;4.63;;;;;;;14.33;100.00;99104.73;1823482;78;20923;-68
2021/05/30 08:00:26;;;;;;;5.80;5.30;;;;;;;14.51;100.00;99103.98;1823649;78;21013;-69
2021/05/30 08:02:53;;;;;;;6.28;5.17;;;;;;;14.79;100.00;99106.86;1823379;78;21069;-67
2021/05/30 08:05:21;;;;;;;4.62;3.95;;;;;;;14.91;100.00;99091.01;1823061;78;21139;-67
2021/05/30 08:07:49;;;;;;;5.28;4.37;;;;;;;14.82;100.00;99102.77;1823418;78;20917;-68
2021/05/30 08:10:20;;;;;;;4.25;3.83;;;;;;;14.79;100.00;99108.21;1821799;78;21005;-66
2021/05/30 08:12:51;;;;;;;4.10;3.70;;;;;;;14.76;100.00;99106.90;1789205;80;21052;-65
2021/05/30 08:15:18;;;;;;;5.12;4.47;;;;;;;14.77;100.00;99113.09;1793252;78;21075;-66
2021/05/30 08:17:46;;;;;;;8.20;3.90;;;;;;;14.90;100.00;99107.53;1792118;78;21117;-66
2021/05/30 08:20:14;;;;;;;10.50;6.87;;;;;;;15.05;100.00;99100.53;1791069;80;21006;-65
2021/05/30 08:22:41;;;;;;;4.85;4.10;;;;;;;14.99;100.00;99104.40;1790586;80;21662;-65
2021/05/30 08:25:11;;;;;;;3.52;3.22;;;;;;;15.18;100.00;99104.38;1790143;80;21001;-67
2021/05/30 08:27:38;;;;;;;4.92;4.30;;;;;;;15.23;100.00;99106.45;1790973;80;21023;-67
2021/05/30 08:30:07;;;;;;;17.30;3.15;;;;;;;15.18;100.00;99118.70;1790688;80;21175;-67
2021/05/30 08:32:35;;;;;;;8.30;3.75;;;;;;;15.12;100.00;99119.89;1790589;80;21082;-67
2021/05/30 08:35:03;;;;;;;4.27;3.30;;;;;;;14.99;100.00;99124.67;1791020;80;21074;-66
2021/05/30 08:37:30;;;;;;;4.20;3.35;;;;;;;14.96;100.00;99127.41;1790942;80;21595;-68
2021/05/30 08:39:56;;;;;;;4.40;3.65;;;;;;;14.78;100.00;99124.97;1791093;80;21618;-66
2021/05/30 08:42:26;;;;;;;4.33;3.12;;;;;;;14.65;100.00;99116.78;1790752;80;21065;-68
2021/05/30 08:44:55;;;;;;;3.15;2.77;;;;;;;14.46;100.00;99118.10;1790009;80;21030;-68
2021/05/30 08:47:22;;;;;;;4.28;3.30;;;;;;;14.23;100.00;99122.41;1790976;80;20973;-66
2021/05/30 08:49:50;;;;;;;3.65;3.35;;;;;;;14.16;100.00;99133.58;1790485;80;20915;-67
2021/05/30 08:52:18;;;;;;;4.00;3.60;;;;;;;14.20;100.00;99136.49;1792078;80;21019;-67
2021/05/30 08:54:45;;;;;;;4.05;3.50;;;;;;;14.17;100.00;99147.32;1794738;80;21133;-66
2021/05/30 08:57:11;;;;;;;8.70;4.20;;;;;;;14.09;100.00;99147.41;1794367;80;21022;-65
2021/05/30 08:59:41;;;;;;;7.17;3.70;;;;;;;14.04;100.00;99160.16;1795093;80;21580;-66
2021/05/30 09:02:17;;;;;;;4.42;4.03;;;;;;;14.00;100.00;99151.02;1794582;80;20892;-67
2021/05/30 09:04:52;;;;;;;4.55;4.12;;;;;;;13.85;100.00;99156.03;1794515;80;20930;-66
2021/05/30 09:07:23;;;;;;;4.22;3.70;;;;;;;13.75;100.00;99152.09;1794588;80;21118;-66
2021/05/30 09:09:51;;;;;;;5.78;4.35;;;;;;;13.66;100.00;99151.88;1786989;80;21505;-68
2021/05/30 09:12:31;;;;;;;5.47;4.00;;;;;;;13.62;100.00;99153.52;1794757;80;21002;-65
2021/05/30 09:14:57;;;;;;;53.10;35.80;;;;;;;13.64;100.00;99152.70;1793920;80;21011;-66
2021/05/30 09:17:24;;;;;;;;;;;;;;;13.63;100.00;99147.86;1797256;80;20975;-67
2021/05/30 09:19:55;;;;;;;103.78;77.65;;;;;;;13.66;100.00;99145.14;1794796;80;22076;-67
2021/05/30 09:22:42;;;;;;;65.78;47.35;;;;;;;13.69;100.00;99155.35;1794868;80;20991;-68
2021/05/30 09:25:18;;;;;;;35.15;26.20;;;;;;;13.84;100.00;99157.09;1794881;80;20955;-66
2021/05/30 09:27:59;;;;;;;17.98;13.95;;;;;;;13.85;100.00;99160.88;1794548;80;21022;-67
2021/05/30 09:30:42;;;;;;;40.80;32.17;;;;;;;13.87;100.00;99160.59;1794621;80;20895;-67
2021/05/30 09:33:14;;;;;;;16.75;7.65;;;;;;;13.85;100.00;99164.92;1794658;80;21059;-66
2021/05/30 09:35:47;;;;;;;7.83;6.08;;;;;;;14.03;100.00;99162.58;1794704;80;21549;-67
2021/05/30 09:38:33;;;;;;;7.00;6.30;;;;;;;14.09;100.00;99164.95;1768168;80;20967;-66
2021/05/30 09:41:12;;;;;;;7.12;5.55;;;;;;;14.34;100.00;99151.70;1794764;80;21608;-65
2021/05/30 09:43:51;;;;;;;5.80;5.30;;;;;;;14.54;100.00;99152.58;1794205;80;20959;-68
2021/05/30 09:46:21;;;;;;;6.85;4.25;;;;;;;14.71;100.00;99155.59;1794440;80;21625;-67
2021/05/30 09:48:56;;;;;;;7.67;5.55;;;;;;;14.93;100.00;99156.93;1794669;80;20880;-68
2021/05/30 09:51:37;;;;;;;6.72;5.92;;;;;;;14.81;100.00;99169.52;1794676;80;20900;-67
2021/05/30 09:54:17;;;;;;;7.97;5.75;;;;;;;14.90;100.00;99175.88;1785822;79;21503;-65
2021/05/30 09:56:53;;;;;;;6.55;4.28;;;;;;;15.09;100.00;99174.55;1785792;80;20963;-68
2021/05/30 09:59:22;;;;;;;4.45;4.05;;;;;;;14.84;100.00;99175.68;1786156;80;21126;-67
2021/05/30 10:01:58;;;;;;;8.30;4.30;;;;;;;14.65;100.00;99167.58;1786087;80;21019;-66
2021/05/30 10:04:31;;;;;;;6.72;4.50;;;;;;;14.55;100.00;99175.27;1786143;80;21573;-65
2021/05/30 10:07:02;;;;;;;15.90;5.35;;;;;;;14.52;100.00;99176.34;1785852;80;20995;-66
2021/05/30 10:09:30;;;;;;;5.78;4.70;;;;;;;14.60;100.00;99179.80;1786031;80;21011;-66
2021/05/30 10:11:57;;;;;;;5.42;4.30;;;;;;;14.81;100.00;99179.52;1786148;80;21089;-65
2021/05/30 10:14:27;;;;;;;4.62;4.22;;;;;;;14.89;100.00;99181.02;1785889;80;20895;-66
2021/05/30 10:16:54;;;;;;;11.68;4.28;;;;;;;14.84;100.00;99187.05;1786188;80;21569;-67
2021/05/30 10:19:40;;;;;;;4.87;4.45;;;;;;;14.84;100.00;99181.64;1785810;80;20979;-65
2021/05/30 10:22:07;;;;;;;6.00;5.17;;;;;;;14.72;100.00;99188.29;1780623;80;20896;-64
2021/05/30 10:24:40;;;;;;;4.55;3.83;;;;;;;14.66;100.00;99188.62;1755933;80;21180;-65
2021/05/30 10:27:24;;;;;;;7.10;4.00;;;;;;;14.64;100.00;99188.11;1786213;80;21525;-66
2021/05/30 10:30:15;;;;;;;5.20;4.00;;;;;;;14.56;100.00;99188.21;1785952;80;21600;-67
2021/05/30 10:32:47;;;;;;;4.72;4.25;;;;;;;14.45;100.00;99193.44;1785950;80;21565;-65
2021/05/30 10:35:26;;;;;;;6.17;4.53;;;;;;;14.46;100.00;99194.50;1780892;80;21013;-67
2021/05/30 10:37:55;;;;;;;7.25;6.35;;;;;;;14.57;100.00;99194.66;1784576;80;21097;-68
2021/05/30 10:40:30;;;;;;;7.40;6.60;;;;;;;14.84;100.00;99204.60;1785975;80;20907;-68
2021/05/30 10:43:13;;;;;;;13.62;6.67;;;;;;;14.85;100.00;99214.34;1786386;80;20995;-66
2021/05/30 10:45:54;;;;;;;10.68;8.23;;;;;;;14.89;100.00;99204.53;1785870;80;20956;-67
2021/05/30 10:48:22;;;;;;;90.12;59.90;;;;;;;14.94;100.00;99208.52;1786016;80;20987;-66
2021/05/30 10:53:46;;;;;;;45.83;34.23;;;;;;;15.30;100.00;99206.67;1789143;80;21070;-66
2021/05/30 10:56:22;;;;;;;52.75;36.50;;;;;;;15.31;100.00;99211.80;1794594;80;21548;-66
2021/05/30 10:59:16;;;;;;;6.72;6.05;;;;;;;15.45;100.00;99214.55;1794734;80;21521;-66
2021/05/30 11:01:47;;;;;;;19.55;13.45;;;;;;;15.65;100.00;99208.83;1794678;80;20907;-65
2021/05/30 11:04:29;;;;;;;20.97;13.72;;;;;;;15.62;100.00;99211.31;1794276;80;22252;-66
2021/05/30 11:07:24;;;;;;;7.80;6.22;;;;;;;15.86;100.00;99213.92;1794357;80;20959;-73
2021/05/30 11:10:01;;;;;;;6.00;4.67;;;;;;;15.94;100.00;99211.88;1794615;80;21010;-65
2021/05/30 11:12:35;;;;;;;8.85;4.83;;;;;;;15.93;100.00;99216.26;1794304;80;21663;-66
2021/05/30 11:15:19;;;;;;;6.35;4.83;;;;;;;16.08;100.00;99219.48;1794998;80;20940;-67
2021/05/30 11:17:52;;;;;;;10.98;5.45;;;;;;;16.10;100.00;99219.20;1794862;80;21109;-67
2021/05/30 11:20:41;;;;;;;5.53;3.72;;;;;;;15.97;100.00;99215.89;1794824;80;20963;-67
2021/05/30 11:23:16;;;;;;;4.03;3.62;;;;;;;15.81;100.00;99211.31;1794287;80;21033;-67
2021/05/30 11:25:54;;;;;;;3.83;3.37;;;;;;;15.34;100.00;99208.50;1793602;80;20967;-66
2021/05/30 11:28:23;;;;;;;6.95;5.92;;;;;;;15.11;100.00;99208.81;1794833;80;21576;-65
2021/05/30 11:30:59;;;;;;;6.12;4.22;;;;;;;15.16;100.00;99212.00;1794735;80;21100;-66
2021/05/30 11:33:30;;;;;;;5.95;3.08;;;;;;;15.21;100.00;99210.05;1794653;80;20920;-66
2021/05/30 11:36:02;;;;;;;6.28;3.83;;;;;;;15.11;100.00;99214.77;1794559;80;21026;-63
2021/05/30 11:38:51;;;;;;;4.30;3.83;;;;;;;14.95;100.00;99217.70;1793978;80;21604;-66
2021/05/30 11:41:21;;;;;;;5.10;4.10;;;;;;;14.86;100.00;99214.58;1794513;80;20997;-64
2021/05/30 11:44:03;;;;;;;5.75;4.15;;;;;;;14.93;100.00;99217.73;1786837;80;21517;-66